createdAt,value
2023-01-02T00:00:09.245Z,99.99
2023-01-02T00:01:09.179Z,99.99
2023-01-02T00:02:09.180Z,99.99
2023-01-02T00:03:09.366Z,99.99
2023-01-02T00:04:09.158Z,99.99
2023-01-02T00:05:09.166Z,99.99
2023-01-02T00:06:09.141Z,99.99
2023-01-02T00:07:09.150Z,99.99
2023-01-02T00:08:09.127Z,99.99
2023-01-02T00:09:09.146Z,99.99
2023-01-02T00:10:09.122Z,99.99
2023-01-02T00:11:09.111Z,99.99
2023-01-02T00:12:09.081Z,99.99
2023-01-02T00:13:09.093Z,99.99
2023-01-02T00:14:09.104Z,99.99
2023-01-02T00:15:09.092Z,99.99
2023-01-02T00:16:09.111Z,99.99
2023-01-02T00:17:09.077Z,99.99
2023-01-02T00:18:09.075Z,99.99
2023-01-02T00:19:09.062Z,99.99
2023-01-02T00:20:09.049Z,99.99
2023-01-02T00:21:09.843Z,99.99
2023-01-02T00:22:09.029Z,99.99
2023-01-02T00:23:09.031Z,99.99
2023-01-02T00:24:09.028Z,99.99
2023-01-02T00:25:08.998Z,99.99
2023-01-02T00:26:09.003Z,99.99
2023-01-02T00:27:08.990Z,99.99
2023-01-02T00:28:08.969Z,99.99
2023-01-02T00:29:08.989Z,99.99
2023-01-02T00:30:08.953Z,99.99
2023-01-02T00:31:09.018Z,99.99
2023-01-02T00:32:08.953Z,99.99
2023-01-02T00:33:08.967Z,99.99
2023-01-02T00:34:08.924Z,99.99
2023-01-02T00:35:08.908Z,99.99
2023-01-02T00:36:08.922Z,99.99
2023-01-02T00:37:08.894Z,99.95
2023-01-02T00:38:08.893Z,99.99
2023-01-02T00:39:08.899Z,99.19
2023-01-02T00:40:08.937Z,98.88
2023-01-02T00:41:08.999Z,97.86
2023-01-02T00:42:08.871Z,97.20
2023-01-02T00:43:08.874Z,96.48
2023-01-02T00:44:08.855Z,95.51
2023-01-02T00:45:08.849Z,94.96
2023-01-02T00:46:11.881Z,94.14
2023-01-02T00:47:09.860Z,93.43
2023-01-02T00:48:09.171Z,94.85
2023-01-02T00:49:08.811Z,95.31
2023-01-02T00:50:08.822Z,95.56
2023-01-02T00:51:08.808Z,95.46
2023-01-02T00:52:08.805Z,95.97
2023-01-02T00:53:08.802Z,97.34
2023-01-02T00:54:08.803Z,97.24
2023-01-02T00:55:08.767Z,97.24
2023-01-02T00:56:08.769Z,97.14
2023-01-02T00:57:08.746Z,98.32
2023-01-02T00:58:08.770Z,98.21
2023-01-02T00:59:08.735Z,97.80
2023-01-02T01:00:08.782Z,97.80
2023-01-02T01:01:08.740Z,97.91
2023-01-02T01:02:08.791Z,97.04
2023-01-02T01:03:08.834Z,97.09
2023-01-02T01:04:08.721Z,95.66
2023-01-02T01:05:08.692Z,94.59
2023-01-02T01:06:08.678Z,93.93
2023-01-02T01:07:08.705Z,93.52
2023-01-02T01:08:08.665Z,93.32
2023-01-02T01:09:08.678Z,92.60
2023-01-02T01:10:08.666Z,92.15
2023-01-02T01:11:08.658Z,90.99
2023-01-02T01:12:08.686Z,89.51
2023-01-02T01:13:08.655Z,88.76
2023-01-02T01:14:08.636Z,87.94
2023-01-02T01:15:08.636Z,87.53
2023-01-02T01:16:08.682Z,87.59
2023-01-02T01:17:08.606Z,87.38
2023-01-02T01:18:08.618Z,86.22
2023-01-02T01:19:08.580Z,86.73
2023-01-02T01:20:08.566Z,86.33
2023-01-02T01:21:08.572Z,86.02
2023-01-02T01:22:08.575Z,86.33
2023-01-02T01:23:08.583Z,85.82
2023-01-02T01:24:08.548Z,85.51
2023-01-02T01:25:08.565Z,85.92
2023-01-02T01:26:08.528Z,86.02
2023-01-02T01:27:08.540Z,86.02
2023-01-02T01:28:08.560Z,85.41
2023-01-02T01:29:08.527Z,85.10
2023-01-02T01:30:08.512Z,85.30
2023-01-02T01:31:08.548Z,84.96
2023-01-02T01:32:08.485Z,85.16
2023-01-02T01:33:08.504Z,84.45
2023-01-02T01:34:08.459Z,84.96
2023-01-02T01:35:08.475Z,85.30
2023-01-02T01:36:08.540Z,84.39
2023-01-02T01:37:08.447Z,84.14
2023-01-02T01:38:08.451Z,83.53
2023-01-02T01:39:08.424Z,84.04
2023-01-02T01:40:08.471Z,84.04
2023-01-02T01:41:08.426Z,83.84
2023-01-02T01:42:08.397Z,83.59
2023-01-02T01:43:08.438Z,84.25
2023-01-02T01:44:08.420Z,83.63
2023-01-02T01:45:08.398Z,83.94
2023-01-02T01:46:08.400Z,83.94
2023-01-02T01:47:08.400Z,83.84
2023-01-02T01:48:08.360Z,83.73
2023-01-02T01:49:08.363Z,84.04
2023-01-02T01:50:08.419Z,83.94
2023-01-02T01:51:08.341Z,84.34
2023-01-02T01:52:08.409Z,84.75
2023-01-02T01:53:08.353Z,84.14
2023-01-02T01:54:08.309Z,84.25
2023-01-02T01:55:08.331Z,84.49
2023-01-02T01:56:08.314Z,84.80
2023-01-02T01:57:08.297Z,84.49
2023-01-02T01:58:08.295Z,84.59
2023-01-02T01:59:08.276Z,84.90
2023-01-02T02:00:08.256Z,84.66
2023-01-02T02:01:09.295Z,84.49
2023-01-02T02:02:08.483Z,84.66
2023-01-02T02:03:08.338Z,84.69
2023-01-02T02:04:08.236Z,84.69
2023-01-02T02:05:08.215Z,84.69
2023-01-02T02:06:08.254Z,84.59
2023-01-02T02:07:08.202Z,84.96
2023-01-02T02:08:08.233Z,84.69
2023-01-02T02:09:08.200Z,84.80
2023-01-02T02:10:08.202Z,84.80
2023-01-02T02:11:08.187Z,83.87
2023-01-02T02:12:08.160Z,83.43
2023-01-02T02:13:08.213Z,83.43
2023-01-02T02:14:08.151Z,83.23
2023-01-02T02:15:40.095Z,83.43
2023-01-02T02:16:08.253Z,83.33
2023-01-02T02:17:08.172Z,83.43
2023-01-02T02:18:08.175Z,83.23
2023-01-02T02:19:08.142Z,82.71
2023-01-02T02:20:08.126Z,82.57
2023-01-02T02:21:08.137Z,82.61
2023-01-02T02:22:08.193Z,82.78
2023-01-02T02:23:08.091Z,82.37
2023-01-02T02:24:40.095Z,82.07
2023-01-02T02:25:08.088Z,81.96
2023-01-02T02:26:08.082Z,82.37
2023-01-02T02:27:08.075Z,81.86
2023-01-02T02:28:08.075Z,82.17
2023-01-02T02:29:08.061Z,81.86
2023-01-02T02:30:08.082Z,82.17
2023-01-02T02:31:08.050Z,82.17
2023-01-02T02:32:08.047Z,82.68
2023-01-02T02:33:08.032Z,82.47
2023-01-02T02:34:08.017Z,82.27
2023-01-02T02:35:08.020Z,83.12
2023-01-02T02:36:08.004Z,82.82
2023-01-02T02:37:07.988Z,82.61
2023-01-02T02:38:07.985Z,82.92
2023-01-02T02:39:08.035Z,83.47
2023-01-02T02:40:08.003Z,83.37
2023-01-02T02:41:07.973Z,83.98
2023-01-02T02:42:07.943Z,83.78
2023-01-02T02:43:07.948Z,83.78
2023-01-02T02:44:07.945Z,83.26
2023-01-02T02:45:07.969Z,83.57
2023-01-02T02:46:07.994Z,83.78
2023-01-02T02:47:07.915Z,83.26
2023-01-02T02:48:07.940Z,83.67
2023-01-02T02:49:07.916Z,83.87
2023-01-02T02:50:07.883Z,83.16
2023-01-02T02:51:07.907Z,83.16
2023-01-02T02:52:07.875Z,82.65
2023-01-02T02:53:07.892Z,82.65
2023-01-02T02:54:07.860Z,82.00
2023-01-02T02:55:07.853Z,82.41
2023-01-02T02:56:07.875Z,82.61
2023-01-02T02:57:07.857Z,81.90
2023-01-02T02:58:07.860Z,82.21
2023-01-02T02:59:07.862Z,82.51
2023-01-02T03:00:07.828Z,82.51
2023-01-02T03:01:07.930Z,82.61
2023-01-02T03:02:07.968Z,82.10
2023-01-02T03:03:07.937Z,82.61
2023-01-02T03:04:08.042Z,82.92
2023-01-02T03:05:07.762Z,82.71
2023-01-02T03:06:07.779Z,82.21
2023-01-02T03:07:07.777Z,82.31
2023-01-02T03:08:07.781Z,82.00
2023-01-02T03:09:07.745Z,82.21
2023-01-02T03:10:07.762Z,81.35
2023-01-02T03:11:07.789Z,80.94
2023-01-02T03:12:07.815Z,81.45
2023-01-02T03:13:08.415Z,80.84
2023-01-02T03:14:07.703Z,81.04
2023-01-02T03:15:07.709Z,80.84
2023-01-02T03:16:07.726Z,80.60
2023-01-02T03:17:07.699Z,80.64
2023-01-02T03:18:07.679Z,80.29
2023-01-02T03:19:07.754Z,80.40
2023-01-02T03:20:07.690Z,80.19
2023-01-02T03:21:07.724Z,79.99
2023-01-02T03:22:07.687Z,80.19
2023-01-02T03:23:07.660Z,80.60
2023-01-02T03:24:07.653Z,80.50
2023-01-02T03:25:08.337Z,81.01
2023-01-02T03:26:07.627Z,80.80
2023-01-02T03:27:07.632Z,81.15
2023-01-02T03:28:07.658Z,80.91
2023-01-02T03:29:07.600Z,81.25
2023-01-02T03:30:07.599Z,82.17
2023-01-02T03:31:07.629Z,81.66
2023-01-02T03:32:07.572Z,81.66
2023-01-02T03:33:08.485Z,81.96
2023-01-02T03:34:07.571Z,82.07
2023-01-02T03:35:07.563Z,82.31
2023-01-02T03:36:07.557Z,82.27
2023-01-02T03:37:07.517Z,81.66
2023-01-02T03:38:07.550Z,81.04
2023-01-02T03:39:07.512Z,81.35
2023-01-02T03:40:07.533Z,81.45
2023-01-02T03:41:07.529Z,81.25
2023-01-02T03:42:07.497Z,82.17
2023-01-02T03:43:08.470Z,81.45
2023-01-02T03:44:07.487Z,81.76
2023-01-02T03:45:07.530Z,82.17
2023-01-02T03:46:07.521Z,82.47
2023-01-02T04:02:28.921Z,82.82
2023-01-02T04:03:28.614Z,82.10
2023-01-02T04:04:30.663Z,82.51
2023-01-02T04:05:29.716Z,81.70
2023-01-02T04:06:29.740Z,80.98
2023-01-02T04:07:29.707Z,81.59
2023-01-02T04:08:29.681Z,81.70
2023-01-02T04:09:29.688Z,82.10
2023-01-02T04:10:29.711Z,81.39
2023-01-02T04:11:29.882Z,81.09
2023-01-02T04:12:29.668Z,80.98
2023-01-02T04:13:29.716Z,80.98
2023-01-02T04:14:29.643Z,80.88
2023-01-02T04:15:29.679Z,80.98
2023-01-02T04:16:29.646Z,80.88
2023-01-02T04:17:29.627Z,80.78
2023-01-02T04:18:29.608Z,80.64
2023-01-02T04:19:29.621Z,80.64
2023-01-02T04:20:30.296Z,80.02
2023-01-02T04:21:29.596Z,80.54
2023-01-02T04:22:29.600Z,80.54
2023-01-02T04:23:29.574Z,80.13
2023-01-02T04:24:29.608Z,80.02
2023-01-02T04:25:29.561Z,79.72
2023-01-02T04:26:30.554Z,78.87
2023-01-02T04:27:29.614Z,79.27
2023-01-02T04:28:29.535Z,78.87
2023-01-02T04:29:29.528Z,78.56
2023-01-02T04:30:29.514Z,78.97
2023-01-02T04:31:29.568Z,78.77
2023-01-02T04:32:29.517Z,78.42
2023-01-02T04:33:30.514Z,78.22
2023-01-02T04:34:29.575Z,77.91
2023-01-02T04:35:30.325Z,77.71
2023-01-02T04:36:29.476Z,77.71
2023-01-02T04:37:29.456Z,77.61
2023-01-02T04:38:29.461Z,77.51
2023-01-02T04:39:29.480Z,77.51
2023-01-02T04:40:30.335Z,77.71
2023-01-02T04:41:29.494Z,77.61
2023-01-02T04:42:29.435Z,77.00
2023-01-02T04:43:29.410Z,77.17
2023-01-02T04:44:29.422Z,77.17
2023-01-02T04:45:29.392Z,76.25
2023-01-02T04:46:30.507Z,76.25
2023-01-02T04:47:29.372Z,76.56
2023-01-02T04:48:29.373Z,76.76
2023-01-02T04:49:29.417Z,76.45
2023-01-02T04:50:29.387Z,76.65
2023-01-02T04:51:29.357Z,76.76
2023-01-02T04:52:35.065Z,76.56
2023-01-02T04:53:31.337Z,76.42
2023-01-02T04:54:29.311Z,76.76
2023-01-02T04:55:29.324Z,76.76
2023-01-02T04:56:29.347Z,76.49
2023-01-02T04:57:29.318Z,76.65
2023-01-02T04:58:29.324Z,76.35
2023-01-02T04:59:29.312Z,76.04
2023-01-02T05:00:29.304Z,76.35
2023-01-02T05:01:29.387Z,76.69
2023-01-02T05:02:29.369Z,76.86
2023-01-02T05:03:29.274Z,76.35
2023-01-02T05:04:29.272Z,76.65
2023-01-02T05:05:29.241Z,76.65
2023-01-02T05:06:29.277Z,76.45
2023-01-02T05:07:29.221Z,77.17
2023-01-02T05:08:29.233Z,76.69
2023-01-02T05:09:29.195Z,77.30
2023-01-02T05:10:29.273Z,76.90
2023-01-02T05:11:29.200Z,76.59
2023-01-02T05:12:29.214Z,76.65
2023-01-02T05:13:29.185Z,76.04
2023-01-02T05:14:29.169Z,75.95
2023-01-02T05:15:29.149Z,76.04
2023-01-02T05:16:29.201Z,75.84
2023-01-02T05:17:29.131Z,75.54
2023-01-02T05:18:29.220Z,75.88
2023-01-02T05:19:29.123Z,75.47
2023-01-02T05:20:29.256Z,75.64
2023-01-02T05:21:29.122Z,75.43
2023-01-02T05:22:29.152Z,75.43
2023-01-02T05:23:29.116Z,75.09
2023-01-02T05:24:29.084Z,75.33
2023-01-02T05:25:29.058Z,74.99
2023-01-02T05:26:29.091Z,74.58
2023-01-02T05:27:29.041Z,74.48
2023-01-02T05:28:32.505Z,74.38
2023-01-02T05:29:30.058Z,74.89
2023-01-02T05:30:29.032Z,74.41
2023-01-02T05:31:29.218Z,74.38
2023-01-02T05:32:29.027Z,74.08
2023-01-02T05:33:29.017Z,74.18
2023-01-02T05:34:29.003Z,74.18
2023-01-02T05:35:33.026Z,73.63
2023-01-02T05:36:29.989Z,74.38
2023-01-02T05:37:28.963Z,74.18
2023-01-02T05:38:28.985Z,74.38
2023-01-02T05:39:28.958Z,73.97
2023-01-02T05:40:29.795Z,73.67
2023-01-02T05:41:28.948Z,73.67
2023-01-02T05:42:28.946Z,73.36
2023-01-02T05:43:28.946Z,73.26
2023-01-02T05:44:28.941Z,73.63
2023-01-02T05:45:28.927Z,74.18
2023-01-02T05:46:28.996Z,73.57
2023-01-02T05:48:00.836Z,73.54
2023-01-02T05:48:28.923Z,73.36
2023-01-02T05:49:28.918Z,72.92
2023-01-02T05:50:28.874Z,72.92
2023-01-02T05:51:28.901Z,73.57
2023-01-02T05:52:28.874Z,73.63
2023-01-02T05:53:28.858Z,73.43
2023-01-02T05:54:28.948Z,73.47
2023-01-02T05:55:28.846Z,73.47
2023-01-02T05:56:28.850Z,73.87
2023-01-02T05:57:28.835Z,73.33
2023-01-02T05:58:28.810Z,73.57
2023-01-02T05:59:28.826Z,73.33
2023-01-02T06:00:28.793Z,73.97
2023-01-02T06:01:28.814Z,73.63
2023-01-02T06:02:28.949Z,73.94
2023-01-02T06:03:28.887Z,73.97
2023-01-02T06:04:28.755Z,73.23
2023-01-02T06:05:28.793Z,74.08
2023-01-02T06:06:28.751Z,73.36
2023-01-02T06:07:28.741Z,73.57
2023-01-02T06:08:28.746Z,73.13
2023-01-02T06:09:28.734Z,73.02
2023-01-02T06:10:28.753Z,73.54
2023-01-02T06:11:28.712Z,73.43
2023-01-02T06:12:28.743Z,73.02
2023-01-02T06:13:28.716Z,72.52
2023-01-02T06:14:28.711Z,72.92
2023-01-02T06:15:28.690Z,72.92
2023-01-02T06:17:00.600Z,73.02
2023-01-02T06:17:28.678Z,72.92
2023-01-02T06:18:28.683Z,72.92
2023-01-02T06:19:28.690Z,71.91
2023-01-02T06:20:28.677Z,72.21
2023-01-02T06:21:28.638Z,71.87
2023-01-02T06:22:28.661Z,71.77
2023-01-02T06:23:28.618Z,71.77
2023-01-02T06:24:28.623Z,71.77
2023-01-02T06:25:28.619Z,71.87
2023-01-02T06:26:34.329Z,71.67
2023-01-02T06:27:55.503Z,72.38
2023-01-02T06:28:28.603Z,72.38
2023-01-02T06:29:28.602Z,72.48
2023-01-02T06:30:28.565Z,72.38
2023-01-02T06:31:28.594Z,72.28
2023-01-02T06:32:28.605Z,72.92
2023-01-02T06:33:28.553Z,72.31
2023-01-02T06:34:28.553Z,72.48
2023-01-02T06:35:28.523Z,72.48
2023-01-02T06:36:28.519Z,72.72
2023-01-02T06:37:28.542Z,72.21
2023-01-02T06:38:28.534Z,72.21
2023-01-02T06:39:28.520Z,72.78
2023-01-02T06:40:28.491Z,72.41
2023-01-02T06:41:28.495Z,72.41
2023-01-02T06:42:29.478Z,72.62
2023-01-02T06:43:28.461Z,72.62
2023-01-02T06:44:28.447Z,72.52
2023-01-02T06:45:28.473Z,71.87
2023-01-02T06:46:28.464Z,72.38
2023-01-02T06:47:28.465Z,72.52
2023-01-02T06:48:28.432Z,72.52
2023-01-02T06:49:28.423Z,72.52
2023-01-02T06:50:34.685Z,72.72
2023-01-02T06:51:30.401Z,72.62
2023-01-02T06:52:28.416Z,72.92
2023-01-02T06:53:28.409Z,72.92
2023-01-02T06:54:28.390Z,72.82
2023-01-02T06:55:28.355Z,72.72
2023-01-02T06:57:00.300Z,73.06
2023-01-02T06:57:28.364Z,73.02
2023-01-02T06:58:28.431Z,72.62
2023-01-02T06:59:28.340Z,72.11
2023-01-02T07:00:28.333Z,72.21
2023-01-02T07:01:28.406Z,72.21
2023-01-02T07:02:28.365Z,72.41
2023-01-02T07:03:28.301Z,72.52
2023-01-02T07:04:29.325Z,72.21
2023-01-02T07:05:28.328Z,72.62
2023-01-02T07:06:28.295Z,72.31
2023-01-02T07:07:28.312Z,72.82
2023-01-02T07:08:28.273Z,72.92
2023-01-02T07:09:28.262Z,73.06
2023-01-02T07:10:28.286Z,73.54
2023-01-02T07:11:28.266Z,72.34
2023-01-02T07:12:28.253Z,72.52
2023-01-02T07:13:28.234Z,72.41
2023-01-02T07:14:28.256Z,72.41
2023-01-02T07:15:28.217Z,71.91
2023-01-02T07:16:28.229Z,72.72
2023-01-02T07:17:28.214Z,72.62
2023-01-02T07:18:28.226Z,72.72
2023-01-02T07:19:28.201Z,73.02
2023-01-02T07:20:28.171Z,73.63
2023-01-02T07:21:28.160Z,73.33
2023-01-02T07:22:28.159Z,73.77
2023-01-02T07:23:28.148Z,73.87
2023-01-02T07:24:28.159Z,73.67
2023-01-02T07:25:28.147Z,74.48
2023-01-02T07:26:28.117Z,73.77
2023-01-02T07:27:28.133Z,74.38
2023-01-02T07:28:28.136Z,74.72
2023-01-02T07:29:28.131Z,74.69
2023-01-02T07:30:28.113Z,74.18
2023-01-02T07:31:28.162Z,73.57
2023-01-02T07:32:28.094Z,74.48
2023-01-02T07:33:28.076Z,73.87
2023-01-02T07:34:28.070Z,74.08
2023-01-02T07:35:28.133Z,74.28
2023-01-02T07:36:28.045Z,74.18
2023-01-02T07:37:28.043Z,74.58
2023-01-02T07:38:28.024Z,74.38
2023-01-02T07:39:28.018Z,73.57
2023-01-02T07:40:32.110Z,73.57
2023-01-02T07:41:29.035Z,73.26
2023-01-02T07:42:27.989Z,73.47
2023-01-02T07:43:27.993Z,73.67
2023-01-02T07:44:27.987Z,74.15
2023-01-02T07:45:28.075Z,73.77
2023-01-02T07:46:28.211Z,73.33
2023-01-02T07:47:27.950Z,73.06
2023-01-02T07:48:28.520Z,72.92
2023-01-02T07:49:27.960Z,72.41
2023-01-02T07:50:27.956Z,72.21
2023-01-02T07:51:28.931Z,71.26
2023-01-02T07:52:27.918Z,71.16
2023-01-02T07:53:27.898Z,70.75
2023-01-02T07:54:27.916Z,70.96
2023-01-02T07:55:27.919Z,71.12
2023-01-02T07:56:27.899Z,71.12
2023-01-02T07:57:27.870Z,71.33
2023-01-02T07:58:27.865Z,71.97
2023-01-02T07:59:27.892Z,71.94
2023-01-02T08:00:27.954Z,71.57
2023-01-02T08:01:27.960Z,71.26
2023-01-02T08:02:27.968Z,71.77
2023-01-02T08:03:27.860Z,71.87
2023-01-02T08:04:27.876Z,71.77
2023-01-02T08:05:27.853Z,71.67
2023-01-02T08:06:27.805Z,71.43
2023-01-02T08:07:27.808Z,71.47
2023-01-02T08:08:27.805Z,71.16
2023-01-02T08:09:27.794Z,71.33
2023-01-02T08:10:27.826Z,71.53
2023-01-02T08:11:27.786Z,71.94
2023-01-02T08:12:27.786Z,72.28
2023-01-02T08:13:27.772Z,72.89
2023-01-02T08:14:27.750Z,73.50
2023-01-02T08:15:59.672Z,73.50
2023-01-02T08:16:27.774Z,74.04
2023-01-02T08:17:27.732Z,72.52
2023-01-02T08:18:30.144Z,72.48
2023-01-02T08:19:27.734Z,71.57
2023-01-02T08:20:27.728Z,71.67
2023-01-02T08:21:27.724Z,70.96
2023-01-02T08:22:27.702Z,71.03
2023-01-02T08:23:27.684Z,71.03
2023-01-02T08:24:27.664Z,70.72
2023-01-02T08:25:27.648Z,71.03
2023-01-02T08:26:27.667Z,70.82
2023-01-02T08:27:27.676Z,70.21
2023-01-02T08:28:27.630Z,70.31
2023-01-02T08:29:27.753Z,70.31
2023-01-02T08:30:27.620Z,69.87
2023-01-02T08:31:27.697Z,70.18
2023-01-02T08:32:27.603Z,70.99
2023-01-02T08:33:27.604Z,70.89
2023-01-02T08:34:27.601Z,71.20
2023-01-02T08:35:38.113Z,71.50
2023-01-02T08:36:29.579Z,70.99
2023-01-02T08:37:27.595Z,70.18
2023-01-02T08:38:28.523Z,69.78
2023-01-02T08:39:27.564Z,70.99
2023-01-02T08:40:28.525Z,70.28
2023-01-02T08:41:27.565Z,70.28
2023-01-02T08:42:28.086Z,70.99
2023-01-02T08:43:27.531Z,71.09
2023-01-02T08:44:28.067Z,70.72
2023-01-02T08:45:27.499Z,70.82
2023-01-02T08:46:27.561Z,71.09
2023-01-02T08:47:27.523Z,70.11
2023-01-02T08:48:27.478Z,71.20
2023-01-02T08:49:27.475Z,71.94
2023-01-02T08:50:27.458Z,72.58
2023-01-02T08:51:27.493Z,73.57
2023-01-02T08:52:27.488Z,73.60
2023-01-02T08:53:27.496Z,73.80
2023-01-02T08:54:27.514Z,74.04
2023-01-02T08:55:27.417Z,74.45
2023-01-02T08:56:27.421Z,74.65
2023-01-02T08:57:27.399Z,74.45
2023-01-02T08:58:28.046Z,74.15
2023-01-02T08:59:28.393Z,74.45
2023-01-02T09:00:27.376Z,74.15
2023-01-02T09:01:28.121Z,74.35
2023-01-02T09:02:27.513Z,74.45
2023-01-02T09:03:27.429Z,74.85
2023-01-02T09:04:27.368Z,74.45
2023-01-02T09:05:27.349Z,74.35
2023-01-02T09:06:27.444Z,74.45
2023-01-02T09:07:27.360Z,74.55
2023-01-02T09:08:27.334Z,73.43
2023-01-02T09:09:27.328Z,72.78
2023-01-02T09:10:27.297Z,73.39
2023-01-02T09:11:27.313Z,73.91
2023-01-02T09:12:27.323Z,74.15
2023-01-02T09:13:27.301Z,73.74
2023-01-02T09:14:27.303Z,73.70
2023-01-02T09:15:27.382Z,74.45
2023-01-02T09:16:27.273Z,74.35
2023-01-02T09:17:27.245Z,74.45
2023-01-02T09:18:29.503Z,74.45
2023-01-02T09:19:28.283Z,74.35
2023-01-02T09:20:27.224Z,74.45
2023-01-02T09:21:27.234Z,74.24
2023-01-02T09:22:27.223Z,73.94
2023-01-02T09:23:27.203Z,74.15
2023-01-02T09:24:27.219Z,73.60
2023-01-02T09:25:27.179Z,74.31
2023-01-02T09:26:27.198Z,74.41
2023-01-02T09:27:28.191Z,74.72
2023-01-02T09:28:27.162Z,74.41
2023-01-02T09:29:27.203Z,74.31
2023-01-02T09:30:27.152Z,74.41
2023-01-02T09:31:27.209Z,75.12
2023-01-02T09:32:27.172Z,74.72
2023-01-02T09:33:27.152Z,75.23
2023-01-02T09:34:27.170Z,75.43
2023-01-02T09:35:27.114Z,74.52
2023-01-02T09:36:27.101Z,73.60
2023-01-02T09:37:27.087Z,73.57
2023-01-02T09:38:27.078Z,71.84
2023-01-02T09:39:32.152Z,71.40
2023-01-02T09:40:29.089Z,71.40
2023-01-02T09:41:27.114Z,70.96
2023-01-02T09:42:27.077Z,70.96
2023-01-02T09:43:27.109Z,70.35
2023-01-02T09:44:27.089Z,69.74
2023-01-02T09:45:27.129Z,69.84
2023-01-02T09:46:27.071Z,69.74
2023-01-02T09:47:27.037Z,69.74
2023-01-02T09:48:27.018Z,69.84
2023-01-02T09:49:27.008Z,69.84
2023-01-02T09:50:27.029Z,70.15
2023-01-02T09:51:26.993Z,70.99
2023-01-02T09:52:27.026Z,70.08
2023-01-02T09:53:26.962Z,70.45
2023-01-02T09:54:27.053Z,69.64
2023-01-02T09:55:26.968Z,69.54
2023-01-02T09:56:31.940Z,70.25
2023-01-02T09:57:28.928Z,70.55
2023-01-02T09:58:26.952Z,71.40
2023-01-02T09:59:26.920Z,71.70
2023-01-02T10:00:26.939Z,72.21
2023-01-02T10:01:58.828Z,72.41
2023-01-02T10:02:26.964Z,72.92
2023-01-02T10:03:27.010Z,72.58
2023-01-02T10:04:58.800Z,73.33
2023-01-02T10:05:26.897Z,73.33
2023-01-02T10:06:26.871Z,74.34
2023-01-02T10:07:26.863Z,73.43
2023-01-02T10:08:31.870Z,73.94
2023-01-02T10:09:53.785Z,73.94
2023-01-02T10:10:26.919Z,73.87
2023-01-02T10:11:27.468Z,73.16
2023-01-02T10:12:26.854Z,74.04
2023-01-02T10:13:44.211Z,73.97
2023-01-02T10:14:35.025Z,74.18
2023-01-02T10:15:28.775Z,74.28
2023-01-02T10:16:27.826Z,74.07
2023-01-02T10:17:26.835Z,74.18
2023-01-02T10:18:26.811Z,74.18
2023-01-02T10:19:26.834Z,75.09
2023-01-02T10:20:26.792Z,75.67
2023-01-02T10:21:26.759Z,75.09
2023-01-02T10:22:26.743Z,75.29
2023-01-02T10:23:26.726Z,75.40
2023-01-02T10:24:27.472Z,75.29
2023-01-02T10:25:26.909Z,75.43
2023-01-02T10:26:26.697Z,77.12
2023-01-02T10:27:26.771Z,77.06
2023-01-02T10:28:26.695Z,77.06
2023-01-02T10:29:26.688Z,77.56
2023-01-02T10:30:26.687Z,78.58
2023-01-02T10:31:26.725Z,78.48
2023-01-02T10:32:26.738Z,78.38
2023-01-02T10:33:26.648Z,79.33
2023-01-02T10:34:26.644Z,79.33
2023-01-02T10:35:26.653Z,79.63
2023-01-02T10:36:26.664Z,80.15
2023-01-02T10:37:26.702Z,80.79
2023-01-02T10:38:26.661Z,80.90
2023-01-02T10:39:26.607Z,81.10
2023-01-02T10:40:26.627Z,80.90
2023-01-02T10:41:26.609Z,81.81
2023-01-02T10:42:26.552Z,82.15
2023-01-02T10:43:26.590Z,81.74
2023-01-02T10:44:26.569Z,82.05
2023-01-02T10:45:26.580Z,82.66
2023-01-02T10:46:26.592Z,83.27
2023-01-02T10:47:26.561Z,83.78
2023-01-02T10:48:26.559Z,82.70
2023-01-02T10:49:26.563Z,83.27
2023-01-02T10:50:26.560Z,83.42
2023-01-02T10:51:26.541Z,83.62
2023-01-02T10:52:27.187Z,83.89
2023-01-02T10:53:27.057Z,83.51
2023-01-02T10:54:26.505Z,83.68
2023-01-02T10:55:26.492Z,83.78
2023-01-02T10:56:27.483Z,83.48
2023-01-02T10:57:26.473Z,82.66
2023-01-02T10:58:26.565Z,83.68
2023-01-02T10:59:26.448Z,83.27
2023-01-02T11:00:28.360Z,83.48
2023-01-02T11:01:27.582Z,82.97
2023-01-02T11:02:26.494Z,83.48
2023-01-02T11:03:26.416Z,83.92
2023-01-02T11:04:26.457Z,84.74
2023-01-02T11:05:26.430Z,85.75
2023-01-02T11:06:28.203Z,85.60
2023-01-02T11:07:27.400Z,86.21
2023-01-02T11:08:26.388Z,86.76
2023-01-02T11:09:26.385Z,86.41
2023-01-02T11:10:26.375Z,86.86
2023-01-02T11:11:27.147Z,86.55
2023-01-02T11:12:27.760Z,87.06
2023-01-02T11:13:27.652Z,86.24
2023-01-02T11:14:26.334Z,87.77
2023-01-02T11:15:26.335Z,87.47
2023-01-02T11:16:26.342Z,88.28
2023-01-02T11:17:26.329Z,87.98
2023-01-02T11:18:26.307Z,87.57
2023-01-02T11:19:29.820Z,88.90
2023-01-02T11:20:27.281Z,89.45
2023-01-02T11:21:26.276Z,89.34
2023-01-02T11:22:26.294Z,89.65
2023-01-02T11:23:26.256Z,90.06
2023-01-02T11:24:26.325Z,90.06
2023-01-02T11:25:26.258Z,89.86
2023-01-02T11:26:26.235Z,90.57
2023-01-02T11:27:26.222Z,90.47
2023-01-02T11:28:26.220Z,90.77
2023-01-02T11:29:26.361Z,90.98
2023-01-02T11:30:26.270Z,91.39
2023-01-02T11:31:26.352Z,91.39
2023-01-02T11:32:26.302Z,91.69
2023-01-02T11:33:26.197Z,92.20
2023-01-02T11:34:26.171Z,91.89
2023-01-02T11:35:26.181Z,92.61
2023-01-02T11:36:26.165Z,92.41
2023-01-02T11:37:26.187Z,92.30
2023-01-02T11:38:29.827Z,92.41
2023-01-02T11:39:26.159Z,92.71
2023-01-02T11:40:27.131Z,92.91
2023-01-02T11:41:26.129Z,92.71
2023-01-02T11:42:26.129Z,93.22
2023-01-02T11:43:26.149Z,93.12
2023-01-02T11:44:26.116Z,92.50
2023-01-02T11:45:26.214Z,92.91
2023-01-02T11:46:26.090Z,92.71
2023-01-02T11:47:26.063Z,92.81
2023-01-02T11:48:26.086Z,92.91
2023-01-02T11:49:26.115Z,93.43
2023-01-02T11:50:26.092Z,92.71
2023-01-02T11:51:26.064Z,92.41
2023-01-02T11:52:26.118Z,92.61
2023-01-02T11:53:26.025Z,93.12
2023-01-02T11:54:26.045Z,93.52
2023-01-02T11:55:26.012Z,92.91
2023-01-02T11:56:26.051Z,93.32
2023-01-02T11:57:25.984Z,92.81
2023-01-02T11:58:27.003Z,92.96
2023-01-02T11:59:25.989Z,93.57
2023-01-02T12:00:25.962Z,93.43
2023-01-02T12:01:26.553Z,93.67
2023-01-02T12:02:26.032Z,93.26
2023-01-02T12:03:26.039Z,93.06
2023-01-02T12:04:25.993Z,92.86
2023-01-02T12:05:25.967Z,92.45
2023-01-02T12:06:25.936Z,92.76
2023-01-02T12:07:25.932Z,92.96
2023-01-02T12:08:25.935Z,93.06
2023-01-02T12:09:25.948Z,92.96
2023-01-02T12:10:26.649Z,93.43
2023-01-02T12:11:25.916Z,93.26
2023-01-02T12:12:25.885Z,93.37
2023-01-02T12:13:25.876Z,92.96
2023-01-02T12:14:25.926Z,92.71
2023-01-02T12:15:25.911Z,92.86
2023-01-02T12:16:25.957Z,92.81
2023-01-02T12:17:25.858Z,92.96
2023-01-02T12:18:25.854Z,93.02
2023-01-02T12:19:25.866Z,93.26
2023-01-02T12:20:25.839Z,92.96
2023-01-02T12:21:25.815Z,93.06
2023-01-02T12:22:25.890Z,92.14
2023-01-02T12:23:25.872Z,92.45
2023-01-02T12:24:25.793Z,92.71
2023-01-02T12:25:26.784Z,92.55
2023-01-02T12:26:25.815Z,92.45
2023-01-02T12:27:25.780Z,92.96
2023-01-02T12:28:25.778Z,92.45
2023-01-02T12:29:46.213Z,93.47
2023-01-02T12:30:28.632Z,92.45
2023-01-02T12:31:25.804Z,92.96
2023-01-02T12:32:25.798Z,92.65
2023-01-02T12:33:25.739Z,92.86
2023-01-02T12:34:25.743Z,92.96
2023-01-02T12:35:25.737Z,93.06
2023-01-02T12:36:25.754Z,93.88
2023-01-02T12:37:25.710Z,93.47
2023-01-02T12:38:30.106Z,93.47
2023-01-02T12:39:27.695Z,93.67
2023-01-02T12:40:25.786Z,93.92
2023-01-02T12:41:25.652Z,93.98
2023-01-02T12:42:25.662Z,93.71
2023-01-02T12:43:25.675Z,93.51
2023-01-02T12:44:31.494Z,93.41
2023-01-02T12:45:27.651Z,93.41
2023-01-02T12:46:25.606Z,93.10
2023-01-02T12:47:25.626Z,93.47
2023-01-02T12:48:25.614Z,93.77
2023-01-02T12:49:25.735Z,94.53
2023-01-02T12:50:25.591Z,93.77
2023-01-02T12:51:25.604Z,94.29
2023-01-02T12:52:25.600Z,94.43
2023-01-02T12:53:25.658Z,94.08
2023-01-02T12:54:25.588Z,94.23
2023-01-02T12:55:25.657Z,94.33
2023-01-02T12:56:25.552Z,94.43
2023-01-02T12:57:25.554Z,94.33
2023-01-02T12:58:25.601Z,95.00
2023-01-02T12:59:25.528Z,94.49
2023-01-02T13:00:25.537Z,94.18
2023-01-02T13:01:25.672Z,94.18
2023-01-02T13:02:25.806Z,94.70
2023-01-02T13:03:25.554Z,94.53
2023-01-02T13:04:25.512Z,94.74
2023-01-02T13:05:25.501Z,94.29
2023-01-02T13:06:45.172Z,95.04
2023-01-02T13:07:26.549Z,94.70